Time;durP1;ratioP1;P1;durP2;ratioP2;P2;SDS_P1;SDS_P2;PMS_P1;PMS_P2;Temp;Humidity;BMP_temperature;BMP_pressure;BME280_temperature;BME280_humidity;BME280_pressure;Samples;Min_cycle;Max_cycle;Signal;HPM_P1;HPM_P2
2023/08/04 00:00:44;;;;;;;6.85;1.23;;;;;;;;;;20915875;28;20139;-64
2023/08/04 00:10:46;;;;;;;5.47;0.63;;;;;;;;;;20915881;28;20069;-64
2023/08/04 00:20:47;;;;;;;6.38;1.10;;;;;;;;;;20914226;28;20132;-63
2023/08/04 00:30:48;;;;;;;2.50;1.00;;;;;;;;;;20913650;28;20080;-64
2023/08/04 00:40:49;;;;;;;4.88;1.10;;;;;;;;;;20914218;28;20441;-64
2023/08/04 00:50:51;;;;;;;5.57;0.90;;;;;;;;;;20913247;28;20047;-64
2023/08/04 01:00:52;;;;;;;4.78;0.98;;;;;;;;;;20911545;28;20052;-64
2023/08/04 01:10:58;;;;;;;5.68;1.23;;;;;;;;;;20912178;28;20414;-64
2023/08/04 01:21:04;;;;;;;3.83;1.30;;;;;;;;;;20916424;28;20049;-62
2023/08/04 01:31:05;;;;;;;3.08;0.82;;;;;;;;;;20928978;28;20056;-63
2023/08/04 01:41:07;;;;;;;4.32;0.70;;;;;;;;;;20928227;28;20071;-64
2023/08/04 01:51:08;;;;;;;6.50;1.00;;;;;;;;;;20927475;28;20057;-63
2023/08/04 02:01:09;;;;;;;3.70;1.02;;;;;;;;;;20926371;28;20127;-64
2023/08/04 02:11:10;;;;;;;2.03;0.90;;;;;;;;;;20925387;28;20057;-63
2023/08/04 02:21:11;;;;;;;2.38;0.60;;;;;;;;;;20925177;28;20048;-63
2023/08/04 02:31:12;;;;;;;2.92;0.85;;;;;;;;;;20922860;28;20124;-64
2023/08/04 02:41:13;;;;;;;3.08;0.68;;;;;;;;;;20923448;28;20072;-63
2023/08/04 02:51:15;;;;;;;6.05;0.88;;;;;;;;;;20921582;28;20053;-64
2023/08/04 03:01:16;;;;;;;3.60;0.77;;;;;;;;;;20921881;28;20049;-63
2023/08/04 03:11:17;;;;;;;4.15;0.80;;;;;;;;;;20920574;28;20409;-63
2023/08/04 03:21:18;;;;;;;4.18;1.33;;;;;;;;;;20920560;28;20490;-64
2023/08/04 03:31:19;;;;;;;5.03;0.73;;;;;;;;;;20919621;28;20049;-62
2023/08/04 03:41:20;;;;;;;3.42;0.55;;;;;;;;;;20918601;28;20538;-63
2023/08/04 03:51:22;;;;;;;3.28;0.70;;;;;;;;;;20917653;28;20052;-64
2023/08/04 04:01:23;;;;;;;3.75;0.88;;;;;;;;;;20916434;28;20044;-63
2023/08/04 04:11:25;;;;;;;4.15;0.68;;;;;;;;;;20915263;28;20059;-63
2023/08/04 04:21:26;;;;;;;4.63;1.17;;;;;;;;;;20914914;28;20095;-63
2023/08/04 04:31:27;;;;;;;1.60;0.63;;;;;;;;;;20913863;28;20041;-63
2023/08/04 04:41:29;;;;;;;3.25;0.50;;;;;;;;;;20914857;28;20080;-63
2023/08/04 04:51:30;;;;;;;2.45;0.52;;;;;;;;;;20914207;28;20170;-62
2023/08/04 05:01:31;;;;;;;3.05;0.50;;;;;;;;;;20911615;28;20048;-63
2023/08/04 05:11:32;;;;;;;2.97;0.52;;;;;;;;;;20912609;28;20098;-62
2023/08/04 05:21:34;;;;;;;2.78;0.80;;;;;;;;;;20911349;28;20045;-63
2023/08/04 05:31:35;;;;;;;1.95;0.70;;;;;;;;;;20911296;28;20045;-63
2023/08/04 05:41:36;;;;;;;1.25;0.40;;;;;;;;;;20911969;28;20041;-63
2023/08/04 05:51:37;;;;;;;2.83;0.57;;;;;;;;;;20911687;28;20049;-64
2023/08/04 06:01:38;;;;;;;2.45;0.77;;;;;;;;;;20910934;28;20053;-64
2023/08/04 06:11:39;;;;;;;2.95;0.50;;;;;;;;;;20922205;28;20090;-64
2023/08/04 06:21:40;;;;;;;1.90;0.50;;;;;;;;;;20925263;28;20044;-64
2023/08/04 06:31:41;;;;;;;3.05;0.70;;;;;;;;;;20924582;28;20116;-63
2023/08/04 06:41:43;;;;;;;6.68;0.88;;;;;;;;;;20923327;28;20121;-64
2023/08/04 06:51:44;;;;;;;3.53;0.40;;;;;;;;;;20921413;28;20051;-63
2023/08/04 07:01:45;;;;;;;1.83;0.52;;;;;;;;;;20921659;28;20052;-63
2023/08/04 07:11:46;;;;;;;1.48;0.40;;;;;;;;;;20921121;28;20135;-63
2023/08/04 07:21:47;;;;;;;1.95;0.50;;;;;;;;;;20919046;28;20398;-64
2023/08/04 07:31:48;;;;;;;0.57;0.30;;;;;;;;;;20919033;28;20378;-63
2023/08/04 07:41:49;;;;;;;1.40;0.30;;;;;;;;;;20918858;28;20563;-64
2023/08/04 07:51:51;;;;;;;3.75;0.75;;;;;;;;;;20917547;28;20556;-63
2023/08/04 08:01:52;;;;;;;1.92;0.28;;;;;;;;;;20916470;28;20402;-63
2023/08/04 08:11:54;;;;;;;1.05;0.28;;;;;;;;;;20915499;28;20098;-63
2023/08/04 08:21:55;;;;;;;2.60;0.30;;;;;;;;;;20915370;28;20430;-64
2023/08/04 08:31:56;;;;;;;3.72;0.30;;;;;;;;;;20914799;28;20531;-64
2023/08/04 08:42:00;;;;;;;0.47;0.20;;;;;;;;;;20913546;28;20044;-65
2023/08/04 08:52:02;;;;;;;2.08;0.20;;;;;;;;;;20912620;28;20071;-65
2023/08/04 09:02:04;;;;;;;1.85;0.50;;;;;;;;;;20910941;28;20052;-64
2023/08/04 09:12:06;;;;;;;1.50;0.40;;;;;;;;;;20911984;28;20056;-63
2023/08/04 09:22:07;;;;;;;1.75;0.30;;;;;;;;;;20912090;28;20041;-65
2023/08/04 09:32:13;;;;;;;1.33;0.47;;;;;;;;;;20911808;28;20045;-63
2023/08/04 09:42:15;;;;;;;2.08;0.38;;;;;;;;;;20916859;28;20180;-64
2023/08/04 09:52:20;;;;;;;3.42;0.40;;;;;;;;;;20926117;28;20124;-66
2023/08/04 10:02:21;;;;;;;2.30;0.32;;;;;;;;;;20926807;28;20413;-64
2023/08/04 10:12:23;;;;;;;1.65;0.30;;;;;;;;;;20924654;28;20481;-64
2023/08/04 10:22:24;;;;;;;1.17;0.30;;;;;;;;;;20923267;28;20040;-64
2023/08/04 10:32:33;;;;;;;0.80;0.30;;;;;;;;;;20978354;28;20045;-64
2023/08/04 10:42:54;;;;;;;1.85;0.38;;;;;;;;;;21005816;28;20040;-65
2023/08/04 10:52:56;;;;;;;1.05;0.30;;;;;;;;;;21002586;28;20044;-65
2023/08/04 11:02:57;;;;;;;0.50;0.20;;;;;;;;;;21004296;28;20507;-63
2023/08/04 11:12:58;;;;;;;2.03;0.20;;;;;;;;;;21003548;28;20048;-65
2023/08/04 11:23:00;;;;;;;2.53;0.22;;;;;;;;;;21002568;28;20048;-64
2023/08/04 11:33:02;;;;;;;4.45;0.70;;;;;;;;;;21001481;28;20040;-64
2023/08/04 11:43:03;;;;;;;0.60;0.30;;;;;;;;;;21000276;28;20048;-65
2023/08/04 11:53:05;;;;;;;1.23;0.73;;;;;;;;;;20999576;28;20045;-64
2023/08/04 12:03:06;;;;;;;2.97;0.25;;;;;;;;;;20998564;28;20577;-64
2023/08/04 12:13:07;;;;;;;1.10;0.25;;;;;;;;;;20997574;28;20055;-64
2023/08/04 12:23:14;;;;;;;1.65;0.30;;;;;;;;;;20996246;28;20053;-63
2023/08/04 12:33:15;;;;;;;1.92;0.20;;;;;;;;;;20997044;28;20044;-64
2023/08/04 12:43:17;;;;;;;1.38;0.25;;;;;;;;;;20996059;28;20127;-64
2023/08/04 12:53:18;;;;;;;1.08;0.38;;;;;;;;;;20995841;28;20052;-64
2023/08/04 13:03:19;;;;;;;1.23;0.10;;;;;;;;;;20994111;28;20049;-64
2023/08/04 13:13:20;;;;;;;3.40;0.40;;;;;;;;;;20993921;28;20067;-64
2023/08/04 13:23:21;;;;;;;2.10;0.47;;;;;;;;;;20993863;28;20056;-64
2023/08/04 13:33:22;;;;;;;7.65;0.50;;;;;;;;;;20994532;28;20044;-64
2023/08/04 13:43:23;;;;;;;1.77;0.32;;;;;;;;;;20994215;28;20048;-64
2023/08/04 13:53:24;;;;;;;1.08;0.30;;;;;;;;;;20992677;28;20141;-65
2023/08/04 14:03:25;;;;;;;1.15;0.40;;;;;;;;;;20993886;28;20493;-64
2023/08/04 14:13:27;;;;;;;1.33;0.30;;;;;;;;;;20991291;28;20060;-64
2023/08/04 14:23:28;;;;;;;0.85;0.30;;;;;;;;;;20992003;28;20489;-64
2023/08/04 14:33:29;;;;;;;0.68;0.35;;;;;;;;;;21004230;28;20059;-64
2023/08/04 14:43:30;;;;;;;1.00;0.43;;;;;;;;;;21006356;28;20067;-62
2023/08/04 14:53:31;;;;;;;3.40;1.35;;;;;;;;;;21006051;28;20387;-65
2023/08/04 15:03:36;;;;;;;2.65;0.55;;;;;;;;;;21005131;28;20162;-65
2023/08/04 15:13:37;;;;;;;0.88;0.30;;;;;;;;;;21002511;28;20053;-64
2023/08/04 15:23:38;;;;;;;4.05;0.85;;;;;;;;;;21002094;28;20033;-64
2023/08/04 15:33:39;;;;;;;19.30;2.08;;;;;;;;;;21002705;28;20055;-66
2023/08/04 15:43:42;;;;;;;0.90;0.47;;;;;;;;;;20999455;28;20042;-62
2023/08/04 15:53:43;;;;;;;3.03;0.85;;;;;;;;;;20999419;28;20127;-62
2023/08/04 16:03:44;;;;;;;1.20;0.30;;;;;;;;;;20999141;28;20091;-63
2023/08/04 16:13:45;;;;;;;0.70;0.50;;;;;;;;;;20997809;28;20134;-65
2023/08/04 16:23:46;;;;;;;0.80;0.35;;;;;;;;;;20998321;28;20509;-64
2023/08/04 16:33:49;;;;;;;1.13;0.40;;;;;;;;;;20996167;28;20080;-64
2023/08/04 16:43:50;;;;;;;0.77;0.50;;;;;;;;;;20995680;28;20109;-65
2023/08/04 16:53:51;;;;;;;1.77;0.40;;;;;;;;;;20995419;28;20131;-63
2023/08/04 17:03:52;;;;;;;1.30;0.45;;;;;;;;;;20995975;28;20047;-63
2023/08/04 17:13:53;;;;;;;0.57;0.47;;;;;;;;;;20994572;28;20056;-63
2023/08/04 17:23:55;;;;;;;1.23;0.60;;;;;;;;;;20994637;28;20516;-64
2023/08/04 17:33:56;;;;;;;1.70;0.70;;;;;;;;;;20993769;28;20044;-62
2023/08/04 17:43:57;;;;;;;1.00;0.60;;;;;;;;;;20993512;28;20470;-63
2023/08/04 17:53:59;;;;;;;1.02;0.50;;;;;;;;;;20992208;28;20049;-63
2023/08/04 18:04:01;;;;;;;0.80;0.50;;;;;;;;;;20998373;28;20078;-62
2023/08/04 18:14:03;;;;;;;1.55;0.93;;;;;;;;;;21007162;28;20076;-62
2023/08/04 18:24:04;;;;;;;3.08;0.52;;;;;;;;;;21007163;28;20053;-62
2023/08/04 18:34:05;;;;;;;1.00;0.60;;;;;;;;;;21006472;28;20071;-62
2023/08/04 18:44:09;;;;;;;1.45;0.50;;;;;;;;;;21005342;28;20559;-63
2023/08/04 18:54:10;;;;;;;2.60;1.15;;;;;;;;;;21004018;28;20056;-62
2023/08/04 19:04:11;;;;;;;2.42;0.80;;;;;;;;;;21002273;28;20088;-63
2023/08/04 19:14:12;;;;;;;2.40;0.75;;;;;;;;;;21001256;28;20052;-62
2023/08/04 19:24:14;;;;;;;1.67;1.10;;;;;;;;;;21002986;28;20054;-63
2023/08/04 19:34:15;;;;;;;1.48;0.75;;;;;;;;;;21001836;28;20048;-63
2023/08/04 19:44:16;;;;;;;4.43;1.30;;;;;;;;;;21000833;28;20124;-61
2023/08/04 19:54:18;;;;;;;2.13;1.38;;;;;;;;;;20998976;28;20055;-64
2023/08/04 20:04:19;;;;;;;3.17;1.10;;;;;;;;;;20997548;28;20041;-63
2023/08/04 20:14:20;;;;;;;3.92;1.00;;;;;;;;;;20997396;28;20186;-64
2023/08/04 20:24:21;;;;;;;2.20;1.02;;;;;;;;;;20998072;28;20505;-64
2023/08/04 20:34:22;;;;;;;4.82;1.23;;;;;;;;;;20997856;28;20436;-63
2023/08/04 20:44:23;;;;;;;2.92;1.25;;;;;;;;;;20995765;28;20044;-63
2023/08/04 20:54:24;;;;;;;3.55;0.98;;;;;;;;;;20996727;28;20162;-62
2023/08/04 21:04:25;;;;;;;3.72;1.10;;;;;;;;;;20994123;28;20127;-63
2023/08/04 21:14:27;;;;;;;3.00;0.88;;;;;;;;;;20994199;28;20583;-63
2023/08/04 21:24:28;;;;;;;3.17;1.10;;;;;;;;;;20993640;28;20048;-63
2023/08/04 21:34:29;;;;;;;5.18;1.88;;;;;;;;;;20994816;28;20105;-62
2023/08/04 21:44:30;;;;;;;3.03;0.90;;;;;;;;;;21010766;28;20044;-63
2023/08/04 21:54:31;;;;;;;4.00;1.05;;;;;;;;;;21010192;28;20037;-63
2023/08/04 22:04:33;;;;;;;2.53;1.00;;;;;;;;;;21008974;28;20044;-63
2023/08/04 22:14:34;;;;;;;2.20;1.08;;;;;;;;;;21008902;28;20401;-63
2023/08/04 22:24:36;;;;;;;2.42;1.08;;;;;;;;;;21006799;28;20041;-63
2023/08/04 22:34:37;;;;;;;2.15;0.80;;;;;;;;;;21006322;28;20041;-63
2023/08/04 22:44:38;;;;;;;2.67;1.13;;;;;;;;;;21005580;28;20036;-64
2023/08/04 22:54:41;;;;;;;3.22;0.60;;;;;;;;;;21004157;28;20043;-62
2023/08/04 23:04:42;;;;;;;4.00;1.17;;;;;;;;;;21004225;28;20501;-63
2023/08/04 23:14:43;;;;;;;2.33;0.80;;;;;;;;;;21002822;28;20399;-63
2023/08/04 23:24:45;;;;;;;1.55;0.60;;;;;;;;;;21002861;28;20070;-63
2023/08/04 23:34:46;;;;;;;2.58;0.75;;;;;;;;;;21002574;28;20048;-62
2023/08/04 23:44:47;;;;;;;4.68;0.88;;;;;;;;;;21001477;28;20506;-62
2023/08/04 23:54:48;;;;;;;2.42;0.70;;;;;;;;;;21000485;28;20524;-63
